sensor_id;sensor_type;location;lat;lon;timestamp;temperature;humidity
15095;DHT22;7648;52.264;9.632;2023-03-23T00:02:14;12.50;99.90
15095;DHT22;7648;52.264;9.632;2023-03-23T00:06:17;12.30;99.90
15095;DHT22;7648;52.264;9.632;2023-03-23T00:10:21;12.10;99.90
15095;DHT22;7648;52.264;9.632;2023-03-23T00:14:26;12.00;99.90
15095;DHT22;7648;52.264;9.632;2023-03-23T00:18:28;12.00;99.90
15095;DHT22;7648;52.264;9.632;2023-03-23T00:22:29;11.90;99.90
15095;DHT22;7648;52.264;9.632;2023-03-23T00:26:39;11.90;99.90
15095;DHT22;7648;52.264;9.632;2023-03-23T00:30:43;11.90;99.90
15095;DHT22;7648;52.264;9.632;2023-03-23T00:34:45;11.80;99.90
15095;DHT22;7648;52.264;9.632;2023-03-23T00:38:49;11.90;99.90
15095;DHT22;7648;52.264;9.632;2023-03-23T00:42:54;11.90;99.90
15095;DHT22;7648;52.264;9.632;2023-03-23T00:46:58;11.90;99.90
15095;DHT22;7648;52.264;9.632;2023-03-23T00:51:00;12.00;99.90
15095;DHT22;7648;52.264;9.632;2023-03-23T00:55:07;12.00;99.90
15095;DHT22;7648;52.264;9.632;2023-03-23T00:59:09;11.90;99.90
15095;DHT22;7648;52.264;9.632;2023-03-23T01:03:12;11.90;99.90
15095;DHT22;7648;52.264;9.632;2023-03-23T01:07:18;11.90;99.90
15095;DHT22;7648;52.264;9.632;2023-03-23T01:11:21;11.80;99.90
15095;DHT22;7648;52.264;9.632;2023-03-23T01:15:22;11.90;99.90
15095;DHT22;7648;52.264;9.632;2023-03-23T01:19:26;12.00;99.90
15095;DHT22;7648;52.264;9.632;2023-03-23T01:23:28;11.90;99.90
15095;DHT22;7648;52.264;9.632;2023-03-23T01:27:30;11.90;99.90
15095;DHT22;7648;52.264;9.632;2023-03-23T01:31:33;11.90;99.90
15095;DHT22;7648;52.264;9.632;2023-03-23T01:35:39;12.00;99.90
15095;DHT22;7648;52.264;9.632;2023-03-23T01:39:41;12.00;99.90
15095;DHT22;7648;52.264;9.632;2023-03-23T01:43:54;12.00;99.90
15095;DHT22;7648;52.264;9.632;2023-03-23T01:48:03;12.00;99.90
15095;DHT22;7648;52.264;9.632;2023-03-23T01:52:10;11.90;99.90
15095;DHT22;7648;52.264;9.632;2023-03-23T01:56:22;11.90;99.90
15095;DHT22;7648;52.264;9.632;2023-03-23T02:00:27;11.80;99.90
15095;DHT22;7648;52.264;9.632;2023-03-23T02:04:30;11.80;99.90
15095;DHT22;7648;52.264;9.632;2023-03-23T02:08:35;11.80;99.90
15095;DHT22;7648;52.264;9.632;2023-03-23T02:12:38;11.80;99.90
15095;DHT22;7648;52.264;9.632;2023-03-23T02:16:44;11.80;99.90
15095;DHT22;7648;52.264;9.632;2023-03-23T02:25:33;11.90;99.90
15095;DHT22;7648;52.264;9.632;2023-03-23T02:29:51;11.80;99.90
15095;DHT22;7648;52.264;9.632;2023-03-23T02:33:59;11.80;99.90
15095;DHT22;7648;52.264;9.632;2023-03-23T02:38:08;11.80;99.90
15095;DHT22;7648;52.264;9.632;2023-03-23T02:42:14;11.80;99.90
15095;DHT22;7648;52.264;9.632;2023-03-23T02:46:18;11.80;99.90
15095;DHT22;7648;52.264;9.632;2023-03-23T02:50:25;11.80;99.90
15095;DHT22;7648;52.264;9.632;2023-03-23T02:54:29;11.70;99.90
15095;DHT22;7648;52.264;9.632;2023-03-23T02:58:31;11.70;99.90
15095;DHT22;7648;52.264;9.632;2023-03-23T03:02:35;11.70;99.90
15095;DHT22;7648;52.264;9.632;2023-03-23T03:06:45;11.70;99.90
15095;DHT22;7648;52.264;9.632;2023-03-23T03:10:53;11.70;99.90
15095;DHT22;7648;52.264;9.632;2023-03-23T03:15:00;11.70;99.90
15095;DHT22;7648;52.264;9.632;2023-03-23T03:19:06;11.70;99.90
15095;DHT22;7648;52.264;9.632;2023-03-23T03:23:16;11.70;99.90
15095;DHT22;7648;52.264;9.632;2023-03-23T03:27:20;11.60;99.90
15095;DHT22;7648;52.264;9.632;2023-03-23T03:31:35;11.60;99.90
15095;DHT22;7648;52.264;9.632;2023-03-23T03:35:40;11.50;99.90
15095;DHT22;7648;52.264;9.632;2023-03-23T03:39:46;11.50;99.90
15095;DHT22;7648;52.264;9.632;2023-03-23T03:43:48;11.60;99.90
15095;DHT22;7648;52.264;9.632;2023-03-23T03:47:50;11.50;99.90
15095;DHT22;7648;52.264;9.632;2023-03-23T03:51:52;11.50;99.90
15095;DHT22;7648;52.264;9.632;2023-03-23T03:56:00;11.50;99.90
15095;DHT22;7648;52.264;9.632;2023-03-23T04:00:11;11.70;99.90
15095;DHT22;7648;52.264;9.632;2023-03-23T04:04:14;11.70;99.90
15095;DHT22;7648;52.264;9.632;2023-03-23T04:08:16;11.60;99.90
15095;DHT22;7648;52.264;9.632;2023-03-23T04:12:20;11.60;99.90
15095;DHT22;7648;52.264;9.632;2023-03-23T04:16:32;11.50;99.90
15095;DHT22;7648;52.264;9.632;2023-03-23T04:20:35;11.60;99.90
15095;DHT22;7648;52.264;9.632;2023-03-23T04:24:38;11.60;99.90
15095;DHT22;7648;52.264;9.632;2023-03-23T04:28:46;11.60;99.90
15095;DHT22;7648;52.264;9.632;2023-03-23T04:33:17;11.70;99.90
15095;DHT22;7648;52.264;9.632;2023-03-23T04:37:21;11.70;99.90
15095;DHT22;7648;52.264;9.632;2023-03-23T04:41:26;11.60;99.90
15095;DHT22;7648;52.264;9.632;2023-03-23T04:45:54;11.70;99.90
15095;DHT22;7648;52.264;9.632;2023-03-23T04:49:59;11.70;99.90
15095;DHT22;7648;52.264;9.632;2023-03-23T04:54:08;11.70;99.90
15095;DHT22;7648;52.264;9.632;2023-03-23T04:58:12;11.70;99.90
15095;DHT22;7648;52.264;9.632;2023-03-23T05:02:44;11.70;99.90
15095;DHT22;7648;52.264;9.632;2023-03-23T05:06:47;11.70;99.90
15095;DHT22;7648;52.264;9.632;2023-03-23T05:10:57;11.60;99.90
15095;DHT22;7648;52.264;9.632;2023-03-23T05:15:02;11.70;99.90
15095;DHT22;7648;52.264;9.632;2023-03-23T05:19:07;11.70;99.90
15095;DHT22;7648;52.264;9.632;2023-03-23T05:23:12;11.70;99.90
15095;DHT22;7648;52.264;9.632;2023-03-23T05:27:15;11.60;99.90
15095;DHT22;7648;52.264;9.632;2023-03-23T05:31:22;11.70;99.90
15095;DHT22;7648;52.264;9.632;2023-03-23T05:35:26;11.70;99.90
15095;DHT22;7648;52.264;9.632;2023-03-23T05:39:29;11.70;99.90
15095;DHT22;7648;52.264;9.632;2023-03-23T05:43:48;11.80;99.90
15095;DHT22;7648;52.264;9.632;2023-03-23T05:47:57;11.70;99.90
15095;DHT22;7648;52.264;9.632;2023-03-23T05:52:03;11.60;99.90
15095;DHT22;7648;52.264;9.632;2023-03-23T05:56:06;11.70;99.90
15095;DHT22;7648;52.264;9.632;2023-03-23T06:00:29;11.60;99.90
15095;DHT22;7648;52.264;9.632;2023-03-23T06:04:45;11.70;99.90
15095;DHT22;7648;52.264;9.632;2023-03-23T06:09:02;11.70;99.90
15095;DHT22;7648;52.264;9.632;2023-03-23T06:13:17;11.80;99.90
15095;DHT22;7648;52.264;9.632;2023-03-23T06:17:22;11.80;99.90
15095;DHT22;7648;52.264;9.632;2023-03-23T06:21:27;11.80;99.90
15095;DHT22;7648;52.264;9.632;2023-03-23T06:25:48;11.90;99.90
15095;DHT22;7648;52.264;9.632;2023-03-23T06:29:51;11.90;99.90
15095;DHT22;7648;52.264;9.632;2023-03-23T06:33:54;11.90;99.90
15095;DHT22;7648;52.264;9.632;2023-03-23T06:37:59;12.00;99.90
15095;DHT22;7648;52.264;9.632;2023-03-23T06:42:24;12.00;99.90
15095;DHT22;7648;52.264;9.632;2023-03-23T06:46:44;12.10;99.90
15095;DHT22;7648;52.264;9.632;2023-03-23T06:50:53;12.30;99.90
15095;DHT22;7648;52.264;9.632;2023-03-23T06:54:58;12.40;99.90
15095;DHT22;7648;52.264;9.632;2023-03-23T06:59:01;12.30;99.90
15095;DHT22;7648;52.264;9.632;2023-03-23T07:03:04;12.30;99.90
15095;DHT22;7648;52.264;9.632;2023-03-23T07:07:08;12.30;99.90
15095;DHT22;7648;52.264;9.632;2023-03-23T07:11:20;12.30;99.90
15095;DHT22;7648;52.264;9.632;2023-03-23T07:15:23;12.30;99.90
15095;DHT22;7648;52.264;9.632;2023-03-23T07:19:27;12.40;99.90
15095;DHT22;7648;52.264;9.632;2023-03-23T07:23:30;12.50;99.90
15095;DHT22;7648;52.264;9.632;2023-03-23T07:27:36;12.60;99.90
15095;DHT22;7648;52.264;9.632;2023-03-23T07:31:39;12.60;99.90
15095;DHT22;7648;52.264;9.632;2023-03-23T07:35:42;12.60;99.90
15095;DHT22;7648;52.264;9.632;2023-03-23T07:39:47;12.60;99.90
15095;DHT22;7648;52.264;9.632;2023-03-23T07:43:50;12.70;99.90
15095;DHT22;7648;52.264;9.632;2023-03-23T07:48:05;12.70;99.90
15095;DHT22;7648;52.264;9.632;2023-03-23T07:52:07;12.70;99.90
15095;DHT22;7648;52.264;9.632;2023-03-23T07:56:11;12.80;99.90
15095;DHT22;7648;52.264;9.632;2023-03-23T08:00:26;12.90;99.90
15095;DHT22;7648;52.264;9.632;2023-03-23T08:04:30;13.00;99.90
15095;DHT22;7648;52.264;9.632;2023-03-23T08:09:00;13.10;99.90
15095;DHT22;7648;52.264;9.632;2023-03-23T08:13:26;13.20;99.90
15095;DHT22;7648;52.264;9.632;2023-03-23T08:17:46;13.20;99.90
15095;DHT22;7648;52.264;9.632;2023-03-23T08:22:21;13.30;99.90
15095;DHT22;7648;52.264;9.632;2023-03-23T08:26:45;13.40;99.90
15095;DHT22;7648;52.264;9.632;2023-03-23T08:31:05;13.40;99.90
15095;DHT22;7648;52.264;9.632;2023-03-23T08:35:25;13.50;99.90
15095;DHT22;7648;52.264;9.632;2023-03-23T08:39:46;13.50;99.90
15095;DHT22;7648;52.264;9.632;2023-03-23T08:44:04;13.50;99.90
15095;DHT22;7648;52.264;9.632;2023-03-23T08:48:21;13.60;99.90
15095;DHT22;7648;52.264;9.632;2023-03-23T08:52:43;13.60;99.90
15095;DHT22;7648;52.264;9.632;2023-03-23T08:56:58;13.70;99.90
15095;DHT22;7648;52.264;9.632;2023-03-23T09:01:11;13.70;99.90
15095;DHT22;7648;52.264;9.632;2023-03-23T09:05:20;13.90;99.90
15095;DHT22;7648;52.264;9.632;2023-03-23T09:09:47;13.80;99.90
15095;DHT22;7648;52.264;9.632;2023-03-23T09:13:51;13.80;99.90
15095;DHT22;7648;52.264;9.632;2023-03-23T09:17:53;13.90;99.90
15095;DHT22;7648;52.264;9.632;2023-03-23T09:21:56;13.80;99.90
15095;DHT22;7648;52.264;9.632;2023-03-23T09:26:00;13.90;99.90
15095;DHT22;7648;52.264;9.632;2023-03-23T09:30:05;14.00;99.90
15095;DHT22;7648;52.264;9.632;2023-03-23T09:34:07;14.00;99.90
15095;DHT22;7648;52.264;9.632;2023-03-23T09:38:10;14.00;99.90
15095;DHT22;7648;52.264;9.632;2023-03-23T09:42:35;14.10;99.90
15095;DHT22;7648;52.264;9.632;2023-03-23T09:46:50;14.10;99.90
15095;DHT22;7648;52.264;9.632;2023-03-23T09:50:59;14.10;99.90
15095;DHT22;7648;52.264;9.632;2023-03-23T09:55:02;14.20;99.90
15095;DHT22;7648;52.264;9.632;2023-03-23T09:59:12;14.20;99.90
15095;DHT22;7648;52.264;9.632;2023-03-23T10:03:16;14.20;99.90
15095;DHT22;7648;52.264;9.632;2023-03-23T10:07:20;14.20;99.90
15095;DHT22;7648;52.264;9.632;2023-03-23T10:11:30;14.10;99.90
15095;DHT22;7648;52.264;9.632;2023-03-23T10:15:36;14.10;99.90
15095;DHT22;7648;52.264;9.632;2023-03-23T10:19:46;14.20;99.90
15095;DHT22;7648;52.264;9.632;2023-03-23T10:23:53;14.30;99.90
15095;DHT22;7648;52.264;9.632;2023-03-23T10:28:01;14.20;99.90
15095;DHT22;7648;52.264;9.632;2023-03-23T10:32:13;14.10;99.90
15095;DHT22;7648;52.264;9.632;2023-03-23T10:36:21;14.20;99.90
15095;DHT22;7648;52.264;9.632;2023-03-23T10:40:27;14.30;99.90
15095;DHT22;7648;52.264;9.632;2023-03-23T10:44:29;14.40;99.90
15095;DHT22;7648;52.264;9.632;2023-03-23T10:48:35;14.40;99.90
15095;DHT22;7648;52.264;9.632;2023-03-23T10:52:40;14.50;99.90
15095;DHT22;7648;52.264;9.632;2023-03-23T10:56:44;14.80;99.90
15095;DHT22;7648;52.264;9.632;2023-03-23T11:00:47;15.10;99.90
15095;DHT22;7648;52.264;9.632;2023-03-23T11:04:58;15.50;99.90
15095;DHT22;7648;52.264;9.632;2023-03-23T11:09:09;15.90;99.90
15095;DHT22;7648;52.264;9.632;2023-03-23T11:13:14;15.90;99.90
15095;DHT22;7648;52.264;9.632;2023-03-23T11:17:22;16.00;99.90
15095;DHT22;7648;52.264;9.632;2023-03-23T11:21:25;16.20;99.90
15095;DHT22;7648;52.264;9.632;2023-03-23T11:25:29;16.60;99.90
15095;DHT22;7648;52.264;9.632;2023-03-23T11:29:31;16.50;99.90
15095;DHT22;7648;52.264;9.632;2023-03-23T11:33:37;16.40;99.90
15095;DHT22;7648;52.264;9.632;2023-03-23T11:37:42;16.30;99.90
15095;DHT22;7648;52.264;9.632;2023-03-23T11:41:46;16.40;99.90
15095;DHT22;7648;52.264;9.632;2023-03-23T11:45:54;16.40;99.90
15095;DHT22;7648;52.264;9.632;2023-03-23T11:50:02;16.10;99.90
15095;DHT22;7648;52.264;9.632;2023-03-23T11:54:12;16.00;99.90
15095;DHT22;7648;52.264;9.632;2023-03-23T11:58:19;16.10;99.90
15095;DHT22;7648;52.264;9.632;2023-03-23T12:02:37;15.90;99.90
15095;DHT22;7648;52.264;9.632;2023-03-23T12:06:48;15.70;99.90
15095;DHT22;7648;52.264;9.632;2023-03-23T12:10:56;15.30;99.90
15095;DHT22;7648;52.264;9.632;2023-03-23T12:15:07;14.40;99.90
15095;DHT22;7648;52.264;9.632;2023-03-23T12:19:18;13.60;99.90
15095;DHT22;7648;52.264;9.632;2023-03-23T12:23:24;13.20;99.90
15095;DHT22;7648;52.264;9.632;2023-03-23T12:27:34;13.50;99.90
15095;DHT22;7648;52.264;9.632;2023-03-23T12:31:44;13.50;99.90
15095;DHT22;7648;52.264;9.632;2023-03-23T12:35:59;13.10;99.90
15095;DHT22;7648;52.264;9.632;2023-03-23T12:44:34;12.80;99.90
15095;DHT22;7648;52.264;9.632;2023-03-23T12:48:41;12.50;99.90
15095;DHT22;7648;52.264;9.632;2023-03-23T12:52:50;12.50;99.90
15095;DHT22;7648;52.264;9.632;2023-03-23T12:56:55;12.50;99.90
15095;DHT22;7648;52.264;9.632;2023-03-23T13:01:06;12.60;99.90
15095;DHT22;7648;52.264;9.632;2023-03-23T13:05:24;12.60;99.90
15095;DHT22;7648;52.264;9.632;2023-03-23T13:09:32;12.50;99.90
15095;DHT22;7648;52.264;9.632;2023-03-23T13:13:47;12.40;99.90
15095;DHT22;7648;52.264;9.632;2023-03-23T13:17:54;12.40;99.90
15095;DHT22;7648;52.264;9.632;2023-03-23T13:22:04;12.50;99.90
15095;DHT22;7648;52.264;9.632;2023-03-23T13:26:09;12.60;99.90
15095;DHT22;7648;52.264;9.632;2023-03-23T13:30:19;12.60;99.90
15095;DHT22;7648;52.264;9.632;2023-03-23T13:34:29;12.50;99.90
15095;DHT22;7648;52.264;9.632;2023-03-23T13:38:33;12.60;99.90
15095;DHT22;7648;52.264;9.632;2023-03-23T13:42:36;12.60;99.90
15095;DHT22;7648;52.264;9.632;2023-03-23T13:46:38;12.50;99.90
15095;DHT22;7648;52.264;9.632;2023-03-23T13:50:44;12.40;99.90
15095;DHT22;7648;52.264;9.632;2023-03-23T13:55:12;12.40;99.90
15095;DHT22;7648;52.264;9.632;2023-03-23T13:59:16;12.40;99.90
15095;DHT22;7648;52.264;9.632;2023-03-23T14:03:25;12.20;99.90
15095;DHT22;7648;52.264;9.632;2023-03-23T14:07:27;11.90;99.90
15095;DHT22;7648;52.264;9.632;2023-03-23T14:11:32;11.80;99.90
15095;DHT22;7648;52.264;9.632;2023-03-23T14:15:44;11.70;99.90
15095;DHT22;7648;52.264;9.632;2023-03-23T14:19:48;11.80;99.90
15095;DHT22;7648;52.264;9.632;2023-03-23T14:23:55;11.90;99.90
15095;DHT22;7648;52.264;9.632;2023-03-23T14:27:59;12.00;99.90
15095;DHT22;7648;52.264;9.632;2023-03-23T14:32:02;12.00;99.90
15095;DHT22;7648;52.264;9.632;2023-03-23T14:36:07;12.00;99.90
15095;DHT22;7648;52.264;9.632;2023-03-23T14:40:11;12.00;99.90
15095;DHT22;7648;52.264;9.632;2023-03-23T14:44:18;12.00;99.90
15095;DHT22;7648;52.264;9.632;2023-03-23T14:48:22;12.00;99.90
15095;DHT22;7648;52.264;9.632;2023-03-23T14:52:26;11.90;99.90
15095;DHT22;7648;52.264;9.632;2023-03-23T14:56:34;11.90;99.90
15095;DHT22;7648;52.264;9.632;2023-03-23T15:00:41;11.80;99.90
15095;DHT22;7648;52.264;9.632;2023-03-23T15:04:45;11.80;99.90
15095;DHT22;7648;52.264;9.632;2023-03-23T15:08:50;11.90;99.90
15095;DHT22;7648;52.264;9.632;2023-03-23T15:12:57;11.80;99.90
15095;DHT22;7648;52.264;9.632;2023-03-23T15:17:00;11.90;99.90
15095;DHT22;7648;52.264;9.632;2023-03-23T15:21:11;11.90;99.90
15095;DHT22;7648;52.264;9.632;2023-03-23T15:25:20;11.80;99.90
15095;DHT22;7648;52.264;9.632;2023-03-23T15:29:22;11.90;99.90
15095;DHT22;7648;52.264;9.632;2023-03-23T15:33:26;12.00;99.90
15095;DHT22;7648;52.264;9.632;2023-03-23T15:37:30;12.00;99.90
15095;DHT22;7648;52.264;9.632;2023-03-23T15:41:33;12.00;99.90
15095;DHT22;7648;52.264;9.632;2023-03-23T15:45:35;12.00;99.90
15095;DHT22;7648;52.264;9.632;2023-03-23T15:49:38;12.10;99.90
15095;DHT22;7648;52.264;9.632;2023-03-23T15:53:41;12.10;99.90
15095;DHT22;7648;52.264;9.632;2023-03-23T15:57:43;12.50;99.90
15095;DHT22;7648;52.264;9.632;2023-03-23T16:01:45;12.90;99.90
15095;DHT22;7648;52.264;9.632;2023-03-23T16:05:49;13.50;99.90
15095;DHT22;7648;52.264;9.632;2023-03-23T16:09:51;13.50;99.90
15095;DHT22;7648;52.264;9.632;2023-03-23T16:13:54;13.10;99.90
15095;DHT22;7648;52.264;9.632;2023-03-23T16:17:55;12.80;99.90
15095;DHT22;7648;52.264;9.632;2023-03-23T16:21:59;12.60;99.90
15095;DHT22;7648;52.264;9.632;2023-03-23T16:26:01;12.50;99.90
15095;DHT22;7648;52.264;9.632;2023-03-23T16:30:12;12.30;99.90
15095;DHT22;7648;52.264;9.632;2023-03-23T16:34:15;12.20;99.90
15095;DHT22;7648;52.264;9.632;2023-03-23T16:38:18;12.20;99.90
15095;DHT22;7648;52.264;9.632;2023-03-23T16:42:20;12.20;99.90
15095;DHT22;7648;52.264;9.632;2023-03-23T16:46:21;12.10;99.90
15095;DHT22;7648;52.264;9.632;2023-03-23T16:50:23;12.10;99.90
15095;DHT22;7648;52.264;9.632;2023-03-23T16:54:27;12.10;99.90
15095;DHT22;7648;52.264;9.632;2023-03-23T17:03:51;12.00;99.90
15095;DHT22;7648;52.264;9.632;2023-03-23T17:07:54;11.90;99.90
15095;DHT22;7648;52.264;9.632;2023-03-23T17:11:57;11.90;99.90
15095;DHT22;7648;52.264;9.632;2023-03-23T17:15:59;11.90;99.90
15095;DHT22;7648;52.264;9.632;2023-03-23T17:20:01;11.90;99.90
15095;DHT22;7648;52.264;9.632;2023-03-23T17:24:03;12.00;99.90
15095;DHT22;7648;52.264;9.632;2023-03-23T17:28:07;12.00;99.90
15095;DHT22;7648;52.264;9.632;2023-03-23T17:32:09;12.00;99.90
15095;DHT22;7648;52.264;9.632;2023-03-23T17:36:11;12.00;99.90
15095;DHT22;7648;52.264;9.632;2023-03-23T17:40:13;12.00;99.90
15095;DHT22;7648;52.264;9.632;2023-03-23T17:44:17;11.90;99.90
15095;DHT22;7648;52.264;9.632;2023-03-23T17:48:19;11.90;99.90
15095;DHT22;7648;52.264;9.632;2023-03-23T17:52:21;11.70;99.90
15095;DHT22;7648;52.264;9.632;2023-03-23T17:56:23;11.80;99.90
15095;DHT22;7648;52.264;9.632;2023-03-23T18:00:26;11.80;99.90
15095;DHT22;7648;52.264;9.632;2023-03-23T18:04:28;11.80;99.90
15095;DHT22;7648;52.264;9.632;2023-03-23T18:08:30;11.70;99.90
15095;DHT22;7648;52.264;9.632;2023-03-23T18:12:32;11.70;99.90
15095;DHT22;7648;52.264;9.632;2023-03-23T18:16:35;11.60;99.90
15095;DHT22;7648;52.264;9.632;2023-03-23T18:20:37;11.70;99.90
15095;DHT22;7648;52.264;9.632;2023-03-23T18:24:39;11.70;99.90
15095;DHT22;7648;52.264;9.632;2023-03-23T18:28:41;11.80;99.90
15095;DHT22;7648;52.264;9.632;2023-03-23T18:32:44;11.80;99.90
15095;DHT22;7648;52.264;9.632;2023-03-23T18:36:46;11.70;99.90
15095;DHT22;7648;52.264;9.632;2023-03-23T18:40:48;11.70;99.90
15095;DHT22;7648;52.264;9.632;2023-03-23T18:44:52;11.70;99.90
15095;DHT22;7648;52.264;9.632;2023-03-23T18:48:56;11.70;99.90
15095;DHT22;7648;52.264;9.632;2023-03-23T18:52:58;11.70;99.90
15095;DHT22;7648;52.264;9.632;2023-03-23T18:57:01;11.70;99.90
15095;DHT22;7648;52.264;9.632;2023-03-23T19:01:05;11.70;99.90
15095;DHT22;7648;52.264;9.632;2023-03-23T19:05:09;11.60;99.90
15095;DHT22;7648;52.264;9.632;2023-03-23T19:09:11;11.60;99.90
15095;DHT22;7648;52.264;9.632;2023-03-23T19:13:13;11.60;99.90
15095;DHT22;7648;52.264;9.632;2023-03-23T19:17:16;11.50;99.90
15095;DHT22;7648;52.264;9.632;2023-03-23T19:21:19;11.50;99.90
15095;DHT22;7648;52.264;9.632;2023-03-23T19:25:21;11.50;99.90
15095;DHT22;7648;52.264;9.632;2023-03-23T19:29:26;11.50;99.90
15095;DHT22;7648;52.264;9.632;2023-03-23T19:33:27;11.50;99.90
15095;DHT22;7648;52.264;9.632;2023-03-23T19:37:31;11.40;99.90
15095;DHT22;7648;52.264;9.632;2023-03-23T19:41:36;11.40;99.90
15095;DHT22;7648;52.264;9.632;2023-03-23T19:45:38;11.30;99.90
15095;DHT22;7648;52.264;9.632;2023-03-23T19:49:41;11.30;99.90
15095;DHT22;7648;52.264;9.632;2023-03-23T19:53:44;11.20;99.90
15095;DHT22;7648;52.264;9.632;2023-03-23T19:57:49;11.20;99.90
15095;DHT22;7648;52.264;9.632;2023-03-23T20:01:51;11.20;99.90
15095;DHT22;7648;52.264;9.632;2023-03-23T20:05:58;11.10;99.90
15095;DHT22;7648;52.264;9.632;2023-03-23T20:10:01;11.10;99.90
15095;DHT22;7648;52.264;9.632;2023-03-23T20:14:03;11.10;99.90
15095;DHT22;7648;52.264;9.632;2023-03-23T20:18:05;11.10;99.90
15095;DHT22;7648;52.264;9.632;2023-03-23T20:22:07;11.10;99.90
15095;DHT22;7648;52.264;9.632;2023-03-23T20:26:13;11.10;99.90
15095;DHT22;7648;52.264;9.632;2023-03-23T20:30:15;11.10;99.90
15095;DHT22;7648;52.264;9.632;2023-03-23T20:34:18;11.10;99.90
15095;DHT22;7648;52.264;9.632;2023-03-23T20:38:30;11.10;99.90
15095;DHT22;7648;52.264;9.632;2023-03-23T20:42:37;11.20;99.90
15095;DHT22;7648;52.264;9.632;2023-03-23T20:46:43;11.20;99.90
15095;DHT22;7648;52.264;9.632;2023-03-23T20:50:45;11.20;99.90
15095;DHT22;7648;52.264;9.632;2023-03-23T20:54:48;11.20;99.90
15095;DHT22;7648;52.264;9.632;2023-03-23T20:58:51;11.20;99.90
15095;DHT22;7648;52.264;9.632;2023-03-23T21:02:54;11.20;99.90
15095;DHT22;7648;52.264;9.632;2023-03-23T21:06:55;11.10;99.90
15095;DHT22;7648;52.264;9.632;2023-03-23T21:10:57;11.10;99.90
15095;DHT22;7648;52.264;9.632;2023-03-23T21:15:01;11.10;99.90
15095;DHT22;7648;52.264;9.632;2023-03-23T21:19:04;11.20;99.90
15095;DHT22;7648;52.264;9.632;2023-03-23T21:23:06;11.10;99.90
15095;DHT22;7648;52.264;9.632;2023-03-23T21:27:08;11.10;99.90
15095;DHT22;7648;52.264;9.632;2023-03-23T21:31:12;11.10;99.90
15095;DHT22;7648;52.264;9.632;2023-03-23T21:35:14;11.10;99.90
15095;DHT22;7648;52.264;9.632;2023-03-23T21:39:16;11.10;99.90
15095;DHT22;7648;52.264;9.632;2023-03-23T21:43:18;11.10;99.90
15095;DHT22;7648;52.264;9.632;2023-03-23T21:47:21;11.10;99.90
15095;DHT22;7648;52.264;9.632;2023-03-23T21:51:25;11.00;99.90
15095;DHT22;7648;52.264;9.632;2023-03-23T21:55:27;10.90;99.90
15095;DHT22;7648;52.264;9.632;2023-03-23T21:59:30;10.90;99.90
15095;DHT22;7648;52.264;9.632;2023-03-23T22:03:33;10.80;99.90
15095;DHT22;7648;52.264;9.632;2023-03-23T22:07:35;10.80;99.90
15095;DHT22;7648;52.264;9.632;2023-03-23T22:11:39;10.70;99.90
15095;DHT22;7648;52.264;9.632;2023-03-23T22:15:41;10.70;99.90
15095;DHT22;7648;52.264;9.632;2023-03-23T22:19:44;10.70;99.90
15095;DHT22;7648;52.264;9.632;2023-03-23T22:23:46;10.70;99.90
15095;DHT22;7648;52.264;9.632;2023-03-23T22:27:48;10.70;99.90
15095;DHT22;7648;52.264;9.632;2023-03-23T22:31:51;10.60;99.90
15095;DHT22;7648;52.264;9.632;2023-03-23T22:35:55;10.70;99.90
15095;DHT22;7648;52.264;9.632;2023-03-23T22:39:57;10.70;99.90
15095;DHT22;7648;52.264;9.632;2023-03-23T22:43:59;10.70;99.90
15095;DHT22;7648;52.264;9.632;2023-03-23T22:48:01;10.80;99.90
15095;DHT22;7648;52.264;9.632;2023-03-23T22:52:06;11.00;99.90
15095;DHT22;7648;52.264;9.632;2023-03-23T22:56:09;11.10;99.90
15095;DHT22;7648;52.264;9.632;2023-03-23T23:00:11;11.20;99.90
15095;DHT22;7648;52.264;9.632;2023-03-23T23:04:14;11.20;99.90
15095;DHT22;7648;52.264;9.632;2023-03-23T23:08:18;11.20;99.90
15095;DHT22;7648;52.264;9.632;2023-03-23T23:12:20;11.30;99.90
15095;DHT22;7648;52.264;9.632;2023-03-23T23:16:22;11.30;99.90
15095;DHT22;7648;52.264;9.632;2023-03-23T23:20:25;11.30;99.90
15095;DHT22;7648;52.264;9.632;2023-03-23T23:24:29;11.40;99.90
15095;DHT22;7648;52.264;9.632;2023-03-23T23:28:31;11.40;99.90
15095;DHT22;7648;52.264;9.632;2023-03-23T23:32:33;11.40;99.90
15095;DHT22;7648;52.264;9.632;2023-03-23T23:36:35;11.40;99.90
15095;DHT22;7648;52.264;9.632;2023-03-23T23:40:40;11.30;99.90
15095;DHT22;7648;52.264;9.632;2023-03-23T23:44:42;11.30;99.90
15095;DHT22;7648;52.264;9.632;2023-03-23T23:48:46;11.30;99.90
15095;DHT22;7648;52.264;9.632;2023-03-23T23:52:48;11.30;99.90
15095;DHT22;7648;52.264;9.632;2023-03-23T23:56:51;11.30;99.90
